Pagina principale
METAR-TAF:

METAR-TAF

Aeroporti :

Aeroporto di Pisa-San Giusto

Pisa, Italia

latitudine: 43-41N, longitudine: 010-23E, altezza: 2 m

Osservazione

Il bollettino è stato emesso 16 minuti fa, alle 19:15 UTC
Vento 6 kt da est
Temperature 23°C
Umidità 44%
Pressione 1015 hPa
Visibilità 10 km o più
nessuna nube inferiore a 1500 m e nessun cumulonembo

METAR: LIRP 231915Z 09006KT CAVOK 23/10 Q1015 NOSIG

Ora: 21:31 (19:31 UTC)

Previsione

Il bollettino è stato emesso 2 ore e 31 minuti fa, alle 17:00 UTC
Previsione valida dal 23 alle 18 UTC al 24 alle 18 UTC
Vento 10 kt da est
Visibilità 10 km o più
Poco nuvoloso ad un'altezza di 7000 ft
Evoluzione graduale
dal 24 alle 12 UTC al 24 alle 14 UTC
Vento 8 kt da nord-ovest

TAF: LIRP 231700Z 2318/2418 08010KT 9999 FEW070 BECMG 2412/2414 310008KT

Osservazioni e previsioni meteorologiche di più di 4000 aeroporti (messaggi METAR e TAF).

Le stazioni disponibili sono rappresentate dai dischi gialli e rossi sulla carta.

Puntare il mouse per vedere il nome della stazione.

Clicca sopra per visualizzare le osservazioni e previsioni meteorologiche.

Per cambiare la mappa : fare clic sui pulsanti verdi con una croce nera per ingrandire, il pulsante verde con un trattino per diminuire, o sulla freccia verde per le mappe adiacenti.


METAR-TAF: